Time;durP1;ratioP1;P1;durP2;ratioP2;P2;SDS_P1;SDS_P2;PMS_P1;PMS_P2;Temp;Humidity;BMP_temperature;BMP_pressure;BME280_temperature;BME280_humidity;BME280_pressure;Samples;Min_cycle;Max_cycle;Signal;HPM_P1;HPM_P2
2022/09/13 00:00:48;;;;;;;2.83;1.70;;;;;;;;;;5053502;28;20021;-71
2022/09/13 00:03:14;;;;;;;3.70;1.80;;;;;;;;;;5053806;28;20079;-71
2022/09/13 00:05:40;;;;;;;5.35;1.67;;;;;;;;;;5053427;28;20021;-72
2022/09/13 00:08:07;;;;;;;2.85;1.80;;;;;;;;;;5053525;28;20021;-71
2022/09/13 00:10:33;;;;;;;7.85;2.00;;;;;;;;;;5053487;28;20381;-72
2022/09/13 00:13:00;;;;;;;3.92;2.13;;;;;;;;;;5053418;28;20023;-72
2022/09/13 00:15:27;;;;;;;5.20;2.22;;;;;;;;;;5053434;28;20021;-70
2022/09/13 00:17:53;;;;;;;4.07;1.75;;;;;;;;;;5053377;28;20035;-71
2022/09/13 00:20:19;;;;;;;4.07;1.70;;;;;;;;;;5053322;28;20029;-71
2022/09/13 00:22:45;;;;;;;4.07;2.00;;;;;;;;;;5053545;28;20031;-71
2022/09/13 00:25:11;;;;;;;2.08;1.70;;;;;;;;;;5053147;28;20020;-71
2022/09/13 00:27:37;;;;;;;5.07;2.00;;;;;;;;;;5053220;28;20096;-71
2022/09/13 00:30:07;;;;;;;3.00;1.75;;;;;;;;;;5053765;28;20048;-73
2022/09/13 00:32:34;;;;;;;2.83;1.63;;;;;;;;;;5053193;28;20021;-72
2022/09/13 00:35:00;;;;;;;2.17;1.52;;;;;;;;;;5053160;28;20048;-71
2022/09/13 00:37:26;;;;;;;3.38;1.90;;;;;;;;;;5053176;28;20392;-72
2022/09/13 00:39:52;;;;;;;3.42;1.83;;;;;;;;;;5053106;28;20027;-71
2022/09/13 00:42:24;;;;;;;3.78;2.08;;;;;;;;;;5053070;28;20032;-71
2022/09/13 00:44:58;;;;;;;6.10;2.15;;;;;;;;;;5053109;28;20388;-71
2022/09/13 00:47:24;;;;;;;3.53;1.70;;;;;;;;;;5035148;28;20445;-72
2022/09/13 00:49:52;;;;;;;6.10;2.00;;;;;;;;;;5053821;28;20100;-72
2022/09/13 00:52:20;;;;;;;2.15;1.85;;;;;;;;;;5052999;28;20075;-73
2022/09/13 00:54:49;;;;;;;3.22;2.28;;;;;;;;;;5053509;28;20113;-71
2022/09/13 00:57:16;;;;;;;3.13;1.77;;;;;;;;;;5053540;28;20056;-72
2022/09/13 00:59:46;;;;;;;4.10;1.65;;;;;;;;;;5052748;28;20552;-71
2022/09/13 01:02:12;;;;;;;4.15;1.80;;;;;;;;;;5053162;28;20025;-72
2022/09/13 01:04:38;;;;;;;3.20;1.70;;;;;;;;;;5053162;28;20025;-71
2022/09/13 01:07:07;;;;;;;6.78;1.92;;;;;;;;;;5052690;28;20067;-71
2022/09/13 01:09:37;;;;;;;4.18;2.13;;;;;;;;;;5053131;28;20044;-72
2022/09/13 01:12:07;;;;;;;4.67;1.80;;;;;;;;;;5052846;28;20465;-71
2022/09/13 01:14:33;;;;;;;2.65;1.67;;;;;;;;;;5038638;28;20021;-72
2022/09/13 01:16:59;;;;;;;3.08;1.80;;;;;;;;;;5056675;28;20040;-72
2022/09/13 01:19:25;;;;;;;5.80;2.08;;;;;;;;;;5056671;28;20056;-73
2022/09/13 01:22:06;;;;;;;3.03;1.92;;;;;;;;;;5056596;28;20033;-72
2022/09/13 01:24:56;;;;;;;3.90;2.00;;;;;;;;;;5056815;28;20029;-72
2022/09/13 01:27:28;;;;;;;4.05;2.08;;;;;;;;;;5056975;28;20040;-72
2022/09/13 01:29:57;;;;;;;2.30;1.63;;;;;;;;;;5056495;28;20031;-71
2022/09/13 01:32:26;;;;;;;3.60;1.80;;;;;;;;;;5056953;28;20025;-73
2022/09/13 01:34:52;;;;;;;4.55;2.15;;;;;;;;;;5056375;28;20029;-71
2022/09/13 01:37:24;;;;;;;4.90;1.80;;;;;;;;;;5056323;28;20485;-73
2022/09/13 01:39:50;;;;;;;2.75;1.75;;;;;;;;;;5056213;28;20444;-71
2022/09/13 01:42:20;;;;;;;4.35;1.90;;;;;;;;;;5056255;28;20050;-72
2022/09/13 01:44:54;;;;;;;7.35;2.15;;;;;;;;;;5056188;28;20025;-71
2022/09/13 01:47:29;;;;;;;4.18;1.90;;;;;;;;;;5056291;28;20385;-71
2022/09/13 01:50:06;;;;;;;8.98;2.20;;;;;;;;;;5056859;28;20483;-71
2022/09/13 01:52:35;;;;;;;3.58;1.90;;;;;;;;;;5056597;28;20032;-72
2022/09/13 01:55:10;;;;;;;3.20;1.95;;;;;;;;;;5055973;28;20021;-71
2022/09/13 01:57:39;;;;;;;3.28;1.80;;;;;;;;;;5056251;28;20021;-71
2022/09/13 02:00:11;;;;;;;3.90;2.22;;;;;;;;;;5056449;28;20032;-72
2022/09/13 02:02:45;;;;;;;6.07;2.22;;;;;;;;;;5056461;28;20045;-72
2022/09/13 02:05:37;;;;;;;7.60;2.38;;;;;;;;;;5055971;28;20052;-71
2022/09/13 02:08:07;;;;;;;5.30;2.55;;;;;;;;;;5051340;28;20099;-72
2022/09/13 02:10:35;;;;;;;2.70;1.90;;;;;;;;;;5055984;28;20420;-71
2022/09/13 02:13:04;;;;;;;3.63;2.35;;;;;;;;;;5055639;28;20049;-72
2022/09/13 02:15:33;;;;;;;4.80;2.20;;;;;;;;;;5055564;28;20087;-72
2022/09/13 02:18:08;;;;;;;4.20;2.10;;;;;;;;;;5056108;28;20029;-70
2022/09/13 02:20:37;;;;;;;3.60;2.10;;;;;;;;;;5055746;28;20490;-71
2022/09/13 02:23:09;;;;;;;5.68;2.53;;;;;;;;;;5055419;28;20036;-73
2022/09/13 02:25:36;;;;;;;2.72;2.13;;;;;;;;;;5054572;28;20060;-71
2022/09/13 02:28:06;;;;;;;2.33;1.92;;;;;;;;;;5055916;28;20022;-72
2022/09/13 02:30:33;;;;;;;3.25;1.98;;;;;;;;;;5055337;28;20028;-71
2022/09/13 02:33:09;;;;;;;3.25;2.00;;;;;;;;;;5055518;28;20533;-71
2022/09/13 02:35:38;;;;;;;5.88;2.33;;;;;;;;;;5055571;28;20025;-72
2022/09/13 02:38:05;;;;;;;4.53;2.55;;;;;;;;;;5055174;28;20056;-71
2022/09/13 02:40:34;;;;;;;3.67;2.60;;;;;;;;;;5055149;28;20433;-71
2022/09/13 02:43:22;;;;;;;6.20;2.67;;;;;;;;;;5055121;28;20025;-71
2022/09/13 02:45:56;;;;;;;5.38;2.30;;;;;;;;;;5054981;28;20309;-72
2022/09/13 02:48:46;;;;;;;5.72;2.45;;;;;;;;;;5055869;28;20029;-72
2022/09/13 02:51:18;;;;;;;4.63;2.40;;;;;;;;;;5055221;28;20029;-72
2022/09/13 02:53:55;;;;;;;2.97;2.22;;;;;;;;;;5054862;28;20025;-71
2022/09/13 02:56:39;;;;;;;2.70;2.17;;;;;;;;;;5055166;28;20075;-72
2022/09/13 02:59:11;;;;;;;5.03;2.78;;;;;;;;;;5054775;28;20067;-71
2022/09/13 03:01:38;;;;;;;4.97;2.38;;;;;;;;;;5055058;28;20025;-71
2022/09/13 03:04:04;;;;;;;5.68;2.70;;;;;;;;;;5054652;28;20029;-71
2022/09/13 03:06:30;;;;;;;6.63;2.95;;;;;;;;;;5054817;28;20028;-70
2022/09/13 03:08:58;;;;;;;4.80;2.80;;;;;;;;;;5054874;28;20120;-72
2022/09/13 03:11:43;;;;;;;6.10;3.20;;;;;;;;;;5054769;28;20474;-72
2022/09/13 03:14:18;;;;;;;4.72;2.67;;;;;;;;;;5054533;28;20029;-73
2022/09/13 03:16:47;;;;;;;7.30;3.80;;;;;;;;;;5054413;28;20057;-70
2022/09/13 03:19:36;;;;;;;9.25;3.83;;;;;;;;;;5054403;28;20036;-71
2022/09/13 03:22:02;;;;;;;5.80;3.27;;;;;;;;;;5041610;28;20523;-73
2022/09/13 03:24:47;;;;;;;8.75;3.33;;;;;;;;;;5054545;28;20099;-73
2022/09/13 03:27:30;;;;;;;7.03;3.70;;;;;;;;;;5054757;28;20062;-72
2022/09/13 03:29:56;;;;;;;7.18;3.42;;;;;;;;;;5054766;28;20070;-72
2022/09/13 03:32:22;;;;;;;6.35;3.42;;;;;;;;;;5054163;28;20033;-72
2022/09/13 03:34:52;;;;;;;5.95;3.75;;;;;;;;;;5053922;28;20021;-71
2022/09/13 03:37:27;;;;;;;6.97;3.63;;;;;;;;;;5054272;28;20025;-71
2022/09/13 03:39:53;;;;;;;8.30;3.70;;;;;;;;;;5054572;28;20381;-71
2022/09/13 03:42:45;;;;;;;7.15;3.53;;;;;;;;;;5053949;28;20043;-71
2022/09/13 03:45:12;;;;;;;6.13;3.30;;;;;;;;;;5049814;28;20033;-72
2022/09/13 03:47:40;;;;;;;7.47;3.33;;;;;;;;;;5053836;28;20029;-71
2022/09/13 03:50:07;;;;;;;7.10;3.78;;;;;;;;;;5054341;28;20017;-71
2022/09/13 03:52:33;;;;;;;8.27;3.20;;;;;;;;;;5054059;28;20033;-72
2022/09/13 03:55:00;;;;;;;8.05;3.25;;;;;;;;;;5054017;28;20017;-72
2022/09/13 03:57:26;;;;;;;9.10;3.75;;;;;;;;;;5053768;28;20025;-71
2022/09/13 03:59:55;;;;;;;9.75;3.42;;;;;;;;;;5053985;28;20039;-71
2022/09/13 04:02:23;;;;;;;5.20;2.65;;;;;;;;;;5054164;28;20039;-72
2022/09/13 04:04:49;;;;;;;6.55;3.10;;;;;;;;;;5053887;28;20036;-71
2022/09/13 04:07:20;;;;;;;6.47;3.33;;;;;;;;;;5053408;28;20462;-72
2022/09/13 04:09:46;;;;;;;7.05;3.03;;;;;;;;;;5053751;28;20049;-72
2022/09/13 04:12:13;;;;;;;6.10;3.05;;;;;;;;;;5053440;28;20417;-71
2022/09/13 04:14:39;;;;;;;5.32;3.05;;;;;;;;;;5053379;28;20017;-71
2022/09/13 04:17:06;;;;;;;9.45;3.60;;;;;;;;;;5053927;28;20076;-71
2022/09/13 04:19:32;;;;;;;9.55;3.50;;;;;;;;;;5035442;28;20032;-73
2022/09/13 04:21:58;;;;;;;8.50;3.30;;;;;;;;;;5053340;28;20036;-71
2022/09/13 04:24:28;;;;;;;6.80;2.97;;;;;;;;;;5053295;28;20021;-73
2022/09/13 04:26:54;;;;;;;6.30;2.50;;;;;;;;;;5053744;28;20029;-72
2022/09/13 04:29:21;;;;;;;6.88;3.47;;;;;;;;;;5053826;28;20052;-71
2022/09/13 04:31:48;;;;;;;6.93;3.00;;;;;;;;;;5053479;28;20389;-71
2022/09/13 04:34:17;;;;;;;6.88;2.83;;;;;;;;;;5053475;28;20392;-72
2022/09/13 04:36:43;;;;;;;7.25;3.42;;;;;;;;;;5053141;28;20032;-70
2022/09/13 04:39:09;;;;;;;7.15;3.50;;;;;;;;;;5053430;28;20483;-70
2022/09/13 04:41:35;;;;;;;9.35;2.88;;;;;;;;;;5053064;28;20091;-71
2022/09/13 04:44:01;;;;;;;7.20;2.78;;;;;;;;;;5053278;28;20024;-71
2022/09/13 04:46:28;;;;;;;5.38;2.67;;;;;;;;;;5053539;28;20036;-71
2022/09/13 04:48:54;;;;;;;6.07;3.08;;;;;;;;;;5056889;28;20550;-71
2022/09/13 04:51:20;;;;;;;7.70;2.85;;;;;;;;;;5057145;28;20393;-71
2022/09/13 04:53:52;;;;;;;5.50;3.15;;;;;;;;;;5057167;28;20401;-71
2022/09/13 04:56:18;;;;;;;5.30;2.72;;;;;;;;;;5057318;28;20035;-71
2022/09/13 04:58:44;;;;;;;8.02;2.72;;;;;;;;;;5056950;28;20120;-71
2022/09/13 05:01:10;;;;;;;5.45;2.88;;;;;;;;;;5057261;28;20082;-71
2022/09/13 05:03:37;;;;;;;5.28;2.90;;;;;;;;;;5039082;28;20493;-72
2022/09/13 05:06:11;;;;;;;6.00;2.92;;;;;;;;;;5056746;28;20534;-71
2022/09/13 05:08:37;;;;;;;7.97;3.17;;;;;;;;;;5057436;28;20029;-71
2022/09/13 05:11:04;;;;;;;5.97;3.20;;;;;;;;;;5057073;28;20394;-71
2022/09/13 05:13:30;;;;;;;7.75;2.97;;;;;;;;;;5057055;28;20355;-70
2022/09/13 05:16:00;;;;;;;8.00;3.22;;;;;;;;;;5056975;28;20591;-71
2022/09/13 05:18:30;;;;;;;6.72;3.05;;;;;;;;;;5057248;28;20029;-71
2022/09/13 05:20:57;;;;;;;6.18;3.05;;;;;;;;;;5056932;28;20400;-70
2022/09/13 05:23:23;;;;;;;6.85;3.53;;;;;;;;;;5056572;28;20025;-71
2022/09/13 05:25:57;;;;;;;5.75;2.60;;;;;;;;;;5056469;28;20025;-71
2022/09/13 05:28:23;;;;;;;11.05;3.17;;;;;;;;;;5056786;28;20025;-71
2022/09/13 05:31:02;;;;;;;4.53;2.55;;;;;;;;;;5056467;28;20029;-72
2022/09/13 05:33:30;;;;;;;5.00;2.80;;;;;;;;;;5057046;28;20438;-70
2022/09/13 05:35:56;;;;;;;6.53;2.92;;;;;;;;;;5056389;28;20247;-70
2022/09/13 05:38:23;;;;;;;6.13;2.88;;;;;;;;;;5056300;28;20151;-72
2022/09/13 05:40:55;;;;;;;7.55;2.90;;;;;;;;;;5056594;28;20361;-71
2022/09/13 05:43:21;;;;;;;5.30;2.58;;;;;;;;;;5056573;28;20457;-71
2022/09/13 05:45:47;;;;;;;7.13;3.25;;;;;;;;;;5056128;28;20029;-71
2022/09/13 05:48:13;;;;;;;7.68;2.60;;;;;;;;;;5056141;28;20385;-73
2022/09/13 05:50:39;;;;;;;5.25;2.67;;;;;;;;;;5056633;28;20393;-70
2022/09/13 05:53:05;;;;;;;4.40;2.10;;;;;;;;;;5056061;28;20029;-71
2022/09/13 05:55:32;;;;;;;5.25;2.50;;;;;;;;;;5056076;28;20045;-72
2022/09/13 05:57:58;;;;;;;5.10;3.13;;;;;;;;;;5055929;28;20489;-72
2022/09/13 06:00:24;;;;;;;7.53;2.50;;;;;;;;;;5055868;28;20028;-70
2022/09/13 06:02:50;;;;;;;4.25;2.40;;;;;;;;;;5055842;28;20117;-70
2022/09/13 06:05:16;;;;;;;4.13;2.50;;;;;;;;;;5055949;28;20053;-71
2022/09/13 06:07:42;;;;;;;5.35;2.22;;;;;;;;;;5055825;28;20441;-71
2022/09/13 06:10:09;;;;;;;6.80;2.60;;;;;;;;;;5055707;28;20099;-70
2022/09/13 06:12:35;;;;;;;7.75;2.75;;;;;;;;;;5055694;28;20017;-70
2022/09/13 06:15:01;;;;;;;4.50;2.63;;;;;;;;;;5055651;28;20021;-71
2022/09/13 06:17:27;;;;;;;5.97;2.70;;;;;;;;;;5055857;28;20040;-71
2022/09/13 06:19:53;;;;;;;5.32;2.33;;;;;;;;;;5055795;28;20029;-71
2022/09/13 06:22:19;;;;;;;5.25;2.20;;;;;;;;;;5055469;28;20500;-72
2022/09/13 06:24:45;;;;;;;7.50;2.75;;;;;;;;;;5055381;28;20028;-70
2022/09/13 06:27:11;;;;;;;6.57;2.45;;;;;;;;;;5055574;28;20036;-71
2022/09/13 06:29:37;;;;;;;4.75;2.67;;;;;;;;;;5055346;28;20029;-72
2022/09/13 06:32:03;;;;;;;4.68;2.65;;;;;;;;;;5055287;28;20029;-71
2022/09/13 06:34:29;;;;;;;8.75;3.10;;;;;;;;;;5055263;28;20025;-70
2022/09/13 06:36:56;;;;;;;5.55;2.70;;;;;;;;;;5055236;28;20591;-71
2022/09/13 06:39:22;;;;;;;5.63;2.83;;;;;;;;;;5055213;28;20056;-72
2022/09/13 06:41:48;;;;;;;6.30;2.50;;;;;;;;;;5055150;28;20031;-71
2022/09/13 06:44:14;;;;;;;5.97;2.47;;;;;;;;;;5055097;28;20025;-71
2022/09/13 06:46:40;;;;;;;5.15;2.83;;;;;;;;;;5055262;28;20078;-72
2022/09/13 06:49:08;;;;;;;5.60;2.83;;;;;;;;;;5055518;28;20036;-73
2022/09/13 06:51:34;;;;;;;7.53;2.88;;;;;;;;;;5054935;28;20017;-72
2022/09/13 06:54:02;;;;;;;7.93;2.55;;;;;;;;;;5055456;28;20029;-70
2022/09/13 06:56:29;;;;;;;5.63;2.60;;;;;;;;;;5055018;28;20021;-73
2022/09/13 06:58:57;;;;;;;5.47;2.58;;;;;;;;;;5054793;28;20072;-73
2022/09/13 07:01:27;;;;;;;5.47;2.50;;;;;;;;;;5054757;28;20025;-72
2022/09/13 07:03:54;;;;;;;7.45;2.85;;;;;;;;;;5055341;28;20389;-73
2022/09/13 07:06:21;;;;;;;9.63;2.70;;;;;;;;;;5054573;28;20032;-72
2022/09/13 07:08:48;;;;;;;5.45;2.60;;;;;;;;;;5054930;28;20021;-71
2022/09/13 07:11:17;;;;;;;6.63;2.88;;;;;;;;;;5053886;28;20028;-72
2022/09/13 07:13:47;;;;;;;8.23;2.65;;;;;;;;;;5036725;28;20032;-72
2022/09/13 07:16:13;;;;;;;;;;;;;;;;;;5054913;28;20113;-70
2022/09/13 07:18:39;;;;;;;6.32;3.10;;;;;;;;;;5054471;28;19940;-71
2022/09/13 07:21:09;;;;;;;4.43;2.80;;;;;;;;;;5054620;28;20055;-71
2022/09/13 07:23:35;;;;;;;;;;;;;;;;;;5054794;28;20067;-72
2022/09/13 07:26:03;;;;;;;4.80;2.45;;;;;;;;;;5054264;28;19913;-72
2022/09/13 07:28:29;;;;;;;5.55;2.63;;;;;;;;;;5054500;28;20017;-71
2022/09/13 07:30:57;;;;;;;5.05;2.60;;;;;;;;;;5054215;28;20071;-72
2022/09/13 07:33:24;;;;;;;6.40;2.42;;;;;;;;;;5054167;28;20047;-71
2022/09/13 07:36:02;;;;;;;5.25;2.40;;;;;;;;;;5054121;28;20024;-71
2022/09/13 07:38:28;;;;;;;8.80;4.32;;;;;;;;;;5054385;28;20029;-72
2022/09/13 07:40:58;;;;;;;8.77;4.15;;;;;;;;;;5054005;28;20052;-72
2022/09/13 07:43:27;;;;;;;14.30;9.50;;;;;;;;;;5054214;28;20029;-72
2022/09/13 07:45:57;;;;;;;32.00;23.48;;;;;;;;;;5035906;28;20374;-72
2022/09/13 07:48:23;;;;;;;38.15;27.13;;;;;;;;;;5053862;28;20025;-72
2022/09/13 07:50:59;;;;;;;31.73;22.23;;;;;;;;;;5054410;28;20393;-71
2022/09/13 07:53:25;;;;;;;14.50;8.07;;;;;;;;;;5053798;28;20090;-72
2022/09/13 07:55:51;;;;;;;10.73;7.85;;;;;;;;;;5053745;28;20052;-72
2022/09/13 07:58:17;;;;;;;9.43;5.78;;;;;;;;;;5053524;28;20493;-73
2022/09/13 08:00:43;;;;;;;9.68;4.53;;;;;;;;;;5053704;28;20114;-71
2022/09/13 08:03:11;;;;;;;12.80;4.07;;;;;;;;;;5053864;28;20438;-72
2022/09/13 08:05:40;;;;;;;5.32;2.92;;;;;;;;;;5053455;28;20029;-71
2022/09/13 08:08:06;;;;;;;7.07;2.97;;;;;;;;;;5053842;28;20079;-71
2022/09/13 08:10:33;;;;;;;6.20;2.97;;;;;;;;;;5053825;28;20021;-72
2022/09/13 08:12:59;;;;;;;7.57;2.92;;;;;;;;;;5053486;28;20473;-72
2022/09/13 08:15:25;;;;;;;2.83;2.15;;;;;;;;;;5053419;28;20029;-70
2022/09/13 08:17:52;;;;;;;9.65;2.92;;;;;;;;;;5053690;28;20025;-71
2022/09/13 08:20:19;;;;;;;4.45;2.35;;;;;;;;;;5053679;28;20083;-72
2022/09/13 08:22:45;;;;;;;7.63;3.10;;;;;;;;;;5053568;28;20025;-71
2022/09/13 08:25:11;;;;;;;5.75;2.63;;;;;;;;;;5053301;28;20100;-72
2022/09/13 08:27:37;;;;;;;5.47;3.20;;;;;;;;;;5053474;28;20021;-72
2022/09/13 08:30:04;;;;;;;7.75;2.90;;;;;;;;;;5053227;28;20025;-72
2022/09/13 08:32:30;;;;;;;6.35;2.60;;;;;;;;;;5053786;28;20017;-73
2022/09/13 08:34:56;;;;;;;7.90;2.58;;;;;;;;;;5053451;28;20465;-72
2022/09/13 08:37:22;;;;;;;5.35;2.47;;;;;;;;;;5053202;28;20021;-72
2022/09/13 08:39:48;;;;;;;3.72;2.25;;;;;;;;;;5053123;28;20108;-72
2022/09/13 08:42:20;;;;;;;6.10;2.80;;;;;;;;;;5053381;28;20049;-72
2022/09/13 08:44:50;;;;;;;8.30;2.97;;;;;;;;;;5053389;28;20104;-72
2022/09/13 08:47:18;;;;;;;5.35;2.42;;;;;;;;;;5053258;28;20025;-72
2022/09/13 08:49:46;;;;;;;8.30;2.88;;;;;;;;;;5053879;28;20025;-72
2022/09/13 08:52:28;;;;;;;6.28;2.85;;;;;;;;;;5053342;28;20070;-72
2022/09/13 08:54:54;;;;;;;3.70;2.30;;;;;;;;;;5053597;28;20025;-72
2022/09/13 08:57:26;;;;;;;7.15;3.13;;;;;;;;;;5052876;28;20025;-73
2022/09/13 09:00:16;;;;;;;6.97;2.60;;;;;;;;;;5053569;28;20041;-72
2022/09/13 09:02:54;;;;;;;5.93;2.92;;;;;;;;;;5040317;28;20037;-72
2022/09/13 09:05:25;;;;;;;8.52;2.72;;;;;;;;;;5053350;28;20102;-73
2022/09/13 09:07:52;;;;;;;7.15;2.70;;;;;;;;;;5053254;28;20401;-72
2022/09/13 09:10:21;;;;;;;7.38;3.03;;;;;;;;;;5052903;28;20493;-72
2022/09/13 09:12:47;;;;;;;8.80;2.85;;;;;;;;;;5052832;28;20049;-72
2022/09/13 09:15:13;;;;;;;5.00;2.70;;;;;;;;;;5052809;28;20064;-73
2022/09/13 09:17:51;;;;;;;8.80;3.58;;;;;;;;;;5053025;28;20027;-72
2022/09/13 09:20:31;;;;;;;7.05;2.47;;;;;;;;;;5052772;28;20437;-71
2022/09/13 09:22:59;;;;;;;6.03;2.65;;;;;;;;;;5034683;28;20386;-73
2022/09/13 09:25:26;;;;;;;8.80;2.78;;;;;;;;;;5052632;28;20031;-72
2022/09/13 09:27:53;;;;;;;5.03;2.90;;;;;;;;;;5052952;28;20380;-72
2022/09/13 09:30:20;;;;;;;7.88;2.92;;;;;;;;;;5052959;28;20440;-72
2022/09/13 09:33:01;;;;;;;5.80;2.40;;;;;;;;;;5052635;28;20021;-72
2022/09/13 09:35:36;;;;;;;10.80;3.00;;;;;;;;;;5056967;28;20098;-72
2022/09/13 09:38:26;;;;;;;7.05;3.08;;;;;;;;;;5056414;28;20017;-72
2022/09/13 09:40:52;;;;;;;3.42;2.50;;;;;;;;;;5056654;28;20017;-72
2022/09/13 09:43:25;;;;;;;12.65;3.35;;;;;;;;;;5056533;28;20028;-72
2022/09/13 09:45:52;;;;;;;4.93;2.40;;;;;;;;;;5056403;28;20029;-73
2022/09/13 09:48:21;;;;;;;5.45;2.70;;;;;;;;;;5056154;28;20025;-73
2022/09/13 09:50:49;;;;;;;8.25;3.05;;;;;;;;;;5056941;28;20095;-72
2022/09/13 09:53:25;;;;;;;4.65;2.67;;;;;;;;;;5056056;28;20029;-72
2022/09/13 09:55:55;;;;;;;7.07;2.78;;;;;;;;;;5056015;28;20116;-73
2022/09/13 09:58:38;;;;;;;15.95;3.22;;;;;;;;;;5055819;28;20041;-72
2022/09/13 10:01:06;;;;;;;5.72;2.97;;;;;;;;;;5055944;28;20061;-73
2022/09/13 10:03:32;;;;;;;9.15;3.20;;;;;;;;;;5056190;28;20048;-72
2022/09/13 10:06:10;;;;;;;8.68;3.08;;;;;;;;;;5055679;28;20036;-72
2022/09/13 10:08:38;;;;;;;6.40;2.55;;;;;;;;;;5055740;28;20079;-72
2022/09/13 10:11:05;;;;;;;8.68;3.65;;;;;;;;;;5056005;28;20025;-73
2022/09/13 10:13:32;;;;;;;11.57;3.33;;;;;;;;;;5055726;28;20381;-73
2022/09/13 10:16:00;;;;;;;5.25;3.28;;;;;;;;;;5055663;28;20029;-72
2022/09/13 10:18:27;;;;;;;9.82;4.75;;;;;;;;;;5055663;28;20027;-73
2022/09/13 10:21:02;;;;;;;12.25;4.60;;;;;;;;;;5055562;28;20047;-71
2022/09/13 10:23:28;;;;;;;9.63;4.28;;;;;;;;;;5037651;28;20430;-72
2022/09/13 10:26:14;;;;;;;20.38;4.95;;;;;;;;;;5055668;28;20104;-72
2022/09/13 10:28:47;;;;;;;9.50;3.33;;;;;;;;;;5055121;28;20036;-72
2022/09/13 10:31:17;;;;;;;8.85;3.28;;;;;;;;;;5055680;28;20557;-72
2022/09/13 10:33:49;;;;;;;6.75;3.70;;;;;;;;;;5055856;28;20032;-72
2022/09/13 10:36:16;;;;;;;10.20;3.78;;;;;;;;;;5055534;28;20036;-72
2022/09/13 10:38:46;;;;;;;9.68;4.18;;;;;;;;;;5055522;28;20075;-72
2022/09/13 10:41:20;;;;;;;10.63;3.55;;;;;;;;;;5055177;28;20025;-72
2022/09/13 10:43:47;;;;;;;7.95;3.05;;;;;;;;;;5055478;28;20032;-72
2022/09/13 10:46:14;;;;;;;8.02;3.58;;;;;;;;;;5053892;28;20036;-72
2022/09/13 10:48:44;;;;;;;9.27;3.35;;;;;;;;;;5055313;28;20444;-72
2022/09/13 10:51:26;;;;;;;9.88;3.38;;;;;;;;;;5055808;28;20078;-72
2022/09/13 10:54:06;;;;;;;7.50;3.00;;;;;;;;;;5054969;28;20079;-72
2022/09/13 10:56:33;;;;;;;5.25;3.20;;;;;;;;;;5055332;28;20154;-72
2022/09/13 10:59:17;;;;;;;8.10;2.95;;;;;;;;;;5054929;28;20045;-72
2022/09/13 11:02:11;;;;;;;8.20;3.35;;;;;;;;;;5055364;28;20465;-72
2022/09/13 11:04:46;;;;;;;8.18;2.92;;;;;;;;;;5018471;28;20039;-71
2022/09/13 11:07:13;;;;;;;8.65;3.20;;;;;;;;;;5055368;28;20044;-71
2022/09/13 11:09:47;;;;;;;6.78;3.47;;;;;;;;;;5054682;28;20075;-71
2022/09/13 11:12:28;;;;;;;8.85;3.65;;;;;;;;;;5055193;28;20112;-73
2022/09/13 11:15:01;;;;;;;17.67;3.20;;;;;;;;;;5055083;28;20021;-71
2022/09/13 11:17:39;;;;;;;10.80;3.22;;;;;;;;;;5054529;28;20021;-72
2022/09/13 11:20:12;;;;;;;13.20;3.63;;;;;;;;;;5054989;28;20067;-71
2022/09/13 11:22:53;;;;;;;7.10;3.17;;;;;;;;;;5054701;28;20461;-72
2022/09/13 11:25:26;;;;;;;7.53;2.50;;;;;;;;;;5054667;28;20032;-72
2022/09/13 11:27:52;;;;;;;6.47;2.88;;;;;;;;;;5054561;28;20107;-72
2022/09/13 11:30:22;;;;;;;8.30;3.00;;;;;;;;;;5054246;28;20108;-72
2022/09/13 11:32:56;;;;;;;11.75;3.63;;;;;;;;;;5036345;28;20025;-72
2022/09/13 11:35:41;;;;;;;11.27;3.60;;;;;;;;;;5054755;28;20025;-71
2022/09/13 11:38:12;;;;;;;6.65;3.30;;;;;;;;;;5054128;28;20139;-72
2022/09/13 11:40:38;;;;;;;12.85;3.50;;;;;;;;;;5054076;28;20050;-72
2022/09/13 11:43:12;;;;;;;8.98;2.97;;;;;;;;;;5054002;28;20025;-70
2022/09/13 11:45:41;;;;;;;8.38;3.22;;;;;;;;;;5054242;28;20470;-71
2022/09/13 11:48:07;;;;;;;8.25;3.03;;;;;;;;;;5054210;28;20024;-72
2022/09/13 11:50:35;;;;;;;11.65;3.10;;;;;;;;;;5054387;28;20082;-72
2022/09/13 11:53:20;;;;;;;8.80;2.70;;;;;;;;;;5054106;28;20063;-71
2022/09/13 11:55:57;;;;;;;8.18;2.70;;;;;;;;;;5053697;28;20539;-72
2022/09/13 11:58:25;;;;;;;8.25;3.00;;;;;;;;;;5053752;28;20056;-72
2022/09/13 12:00:55;;;;;;;12.32;3.10;;;;;;;;;;5053720;28;20477;-72
2022/09/13 12:03:21;;;;;;;;;;;;;;;;;;5054038;28;20115;-71
2022/09/13 12:05:52;;;;;;;13.55;3.40;;;;;;;;;;5053665;28;20011;-72
2022/09/13 12:08:18;;;;;;;10.45;3.00;;;;;;;;;;5053582;28;20104;-72
2022/09/13 12:10:56;;;;;;;8.75;3.30;;;;;;;;;;5053541;28;20058;-71
2022/09/13 12:13:25;;;;;;;8.68;2.88;;;;;;;;;;5053508;28;20024;-71
2022/09/13 12:15:52;;;;;;;9.97;3.23;;;;;;;;;;5053474;28;20021;-72
2022/09/13 12:18:27;;;;;;;7.22;3.20;;;;;;;;;;5053964;28;20021;-72
2022/09/13 12:21:05;;;;;;;9.50;3.63;;;;;;;;;;5053375;28;20086;-72
2022/09/13 12:23:52;;;;;;;7.78;2.92;;;;;;;;;;5053663;28;20024;-71
2022/09/13 12:26:34;;;;;;;11.48;3.35;;;;;;;;;;5036651;28;20120;-73
2022/09/13 12:29:19;;;;;;;12.35;4.15;;;;;;;;;;5053242;28;20389;-71
2022/09/13 12:31:45;;;;;;;10.02;4.18;;;;;;;;;;5053258;28;20474;-71
2022/09/13 12:34:17;;;;;;;9.63;3.90;;;;;;;;;;5053484;28;20028;-71
2022/09/13 12:36:52;;;;;;;9.73;3.38;;;;;;;;;;5053523;28;20033;-71
2022/09/13 12:39:18;;;;;;;10.00;3.45;;;;;;;;;;5053215;28;20032;-72
2022/09/13 12:41:46;;;;;;;11.18;4.47;;;;;;;;;;5053162;28;20027;-71
2022/09/13 12:44:27;;;;;;;11.48;4.05;;;;;;;;;;5053163;28;20031;-72
2022/09/13 12:47:02;;;;;;;12.25;4.47;;;;;;;;;;5053041;28;20083;-72
2022/09/13 12:49:29;;;;;;;9.27;4.32;;;;;;;;;;5053096;28;20028;-71
2022/09/13 12:52:10;;;;;;;9.52;4.43;;;;;;;;;;5054120;28;20488;-72
2022/09/13 12:54:45;;;;;;;13.68;4.55;;;;;;;;;;5053307;28;20017;-71
2022/09/13 12:57:30;;;;;;;10.05;4.43;;;;;;;;;;5053575;28;20033;-72
2022/09/13 13:00:13;;;;;;;13.18;5.03;;;;;;;;;;5053542;28;20116;-71
2022/09/13 13:02:42;;;;;;;13.85;4.63;;;;;;;;;;5053535;28;20104;-71
2022/09/13 13:05:26;;;;;;;10.57;3.90;;;;;;;;;;5052868;28;20473;-71
2022/09/13 13:07:55;;;;;;;13.07;4.25;;;;;;;;;;5052904;28;20067;-72
2022/09/13 13:10:29;;;;;;;11.60;4.60;;;;;;;;;;5057146;28;20021;-72
2022/09/13 13:12:55;;;;;;;12.98;4.90;;;;;;;;;;5056867;28;20465;-72
2022/09/13 13:15:24;;;;;;;11.05;4.60;;;;;;;;;;5056791;28;20056;-72
2022/09/13 13:17:52;;;;;;;10.65;4.18;;;;;;;;;;5056806;28;20040;-72
2022/09/13 13:20:36;;;;;;;14.25;4.93;;;;;;;;;;5056685;28;20028;-72
2022/09/13 13:23:05;;;;;;;14.98;5.18;;;;;;;;;;5056936;28;20025;-72
2022/09/13 13:25:36;;;;;;;9.10;5.20;;;;;;;;;;5056489;28;20100;-71
2022/09/13 13:28:02;;;;;;;16.13;6.22;;;;;;;;;;5056832;28;20095;-73
2022/09/13 13:30:34;;;;;;;12.85;4.85;;;;;;;;;;5038610;28;20436;-71
2022/09/13 13:33:19;;;;;;;8.98;4.97;;;;;;;;;;5056516;28;20029;-71
2022/09/13 13:35:45;;;;;;;11.50;4.80;;;;;;;;;;5056716;28;20022;-72
2022/09/13 13:38:30;;;;;;;12.13;4.90;;;;;;;;;;5056941;28;20052;-71
2022/09/13 13:41:07;;;;;;;13.18;5.38;;;;;;;;;;5056359;28;20096;-73
2022/09/13 13:43:33;;;;;;;14.13;5.20;;;;;;;;;;5056606;28;20021;-72
2022/09/13 13:46:19;;;;;;;15.82;4.68;;;;;;;;;;5056426;28;20029;-72
2022/09/13 13:48:45;;;;;;;13.52;5.28;;;;;;;;;;5055804;28;20025;-72
2022/09/13 13:51:16;;;;;;;11.73;4.65;;;;;;;;;;5056720;28;20021;-72
2022/09/13 13:53:44;;;;;;;13.57;5.80;;;;;;;;;;5056099;28;20098;-71
2022/09/13 13:56:42;;;;;;;10.75;5.47;;;;;;;;;;5056641;28;20021;-73
2022/09/13 13:59:08;;;;;;;10.68;5.40;;;;;;;;;;5021988;28;20069;-72
2022/09/13 14:01:36;;;;;;;11.68;6.00;;;;;;;;;;5076003;28;20105;-71
2022/09/13 14:04:08;;;;;;;12.25;5.32;;;;;;;;;;5075948;28;20512;-71
2022/09/13 14:06:52;;;;;;;13.00;5.55;;;;;;;;;;5075711;28;20119;-72
2022/09/13 14:09:37;;;;;;;11.75;5.32;;;;;;;;;;5075797;28;20537;-72
2022/09/13 14:12:09;;;;;;;13.10;5.35;;;;;;;;;;5075816;28;20404;-73
2022/09/13 14:14:47;;;;;;;13.35;5.28;;;;;;;;;;5076254;28;20046;-72
2022/09/13 14:17:32;;;;;;;10.05;5.15;;;;;;;;;;5075663;28;20032;-74
2022/09/13 14:20:00;;;;;;;14.27;5.72;;;;;;;;;;5075469;28;20438;-72
2022/09/13 14:22:26;;;;;;;14.05;6.25;;;;;;;;;;5075878;28;20086;-71
2022/09/13 14:24:53;;;;;;;12.52;7.93;;;;;;;;;;5075842;28;20423;-72
2022/09/13 14:27:22;;;;;;;19.30;11.10;;;;;;;;;;5075448;28;20066;-72
2022/09/13 14:29:52;;;;;;;15.30;10.32;;;;;;;;;;5076026;28;20023;-71
2022/09/13 14:32:21;;;;;;;17.83;10.40;;;;;;;;;;5076015;28;20033;-72
2022/09/13 14:34:55;;;;;;;19.40;10.70;;;;;;;;;;5075442;28;20017;-72
2022/09/13 14:37:24;;;;;;;16.35;10.27;;;;;;;;;;5075651;28;20028;-72
2022/09/13 14:39:54;;;;;;;19.10;10.88;;;;;;;;;;5075605;28;20116;-71
2022/09/13 14:42:20;;;;;;;18.27;10.38;;;;;;;;;;5075536;28;20078;-72
2022/09/13 14:44:47;;;;;;;16.73;10.90;;;;;;;;;;5075736;28;20020;-73
2022/09/13 14:47:13;;;;;;;20.42;12.27;;;;;;;;;;5075329;28;20072;-73
2022/09/13 14:49:40;;;;;;;21.73;11.90;;;;;;;;;;5075121;28;20040;-72
2022/09/13 14:52:14;;;;;;;18.90;11.63;;;;;;;;;;5075555;28;20028;-72
2022/09/13 14:54:43;;;;;;;18.83;10.63;;;;;;;;;;5075280;28;20020;-73
2022/09/13 14:57:14;;;;;;;17.37;10.90;;;;;;;;;;5075246;28;20052;-72
2022/09/13 14:59:43;;;;;;;15.88;10.48;;;;;;;;;;5055109;28;20099;-72